Time;durP1;ratioP1;P1;durP2;ratioP2;P2;SDS_P1;SDS_P2;PMS_P1;PMS_P2;Temp;Humidity;BMP_temperature;BMP_pressure;BME280_temperature;BME280_humidity;BME280_pressure;Samples;Min_cycle;Max_cycle;Signal;HPM_P1;HPM_P2
2023/08/13 00:01:04;;;;;;;;;4.00;4.00;;;;;23.32;48.94;101373.41;5032872;28;45418;-72
2023/08/13 00:03:30;;;;;;;;;4.00;2.50;;;;;23.34;48.83;101376.03;5034300;28;45531;-72
2023/08/13 00:05:58;;;;;;;;;3.00;3.00;;;;;23.35;48.37;101367.06;5035185;28;47882;-72
2023/08/13 00:08:23;;;;;;;;;3.75;3.25;;;;;23.02;48.78;101324.81;5033777;28;46063;-72
2023/08/13 00:10:49;;;;;;;;;2.00;2.00;;;;;23.17;48.95;101350.88;5047398;28;45714;-71
2023/08/13 00:13:15;;;;;;;;;3.50;2.00;;;;;23.02;48.51;101324.81;5034030;28;45526;-72
2023/08/13 00:15:40;;;;;;;;;3.50;3.25;;;;;23.16;48.70;101342.91;5034743;28;46005;-72
2023/08/13 00:18:06;;;;;;;;;5.00;3.50;;;;;23.24;49.21;101355.03;5037554;28;45544;-73
2023/08/13 00:20:31;;;;;;;;;2.75;2.75;;;;;23.18;48.95;101351.75;5054050;28;46353;-72
2023/08/13 00:22:57;;;;;;;;;3.00;3.00;;;;;23.21;48.97;101367.66;5037753;28;45695;-73
2023/08/13 00:25:22;;;;;;;;;2.00;2.00;;;;;23.20;49.50;101366.78;5037385;28;45511;-73
2023/08/13 00:27:48;;;;;;;;;3.00;2.50;;;;;23.07;49.80;101346.84;5037923;28;45530;-73
2023/08/13 00:30:19;;;;;;;;;5.50;3.00;;;;;22.92;49.96;101318.03;5038209;28;45318;-72
2023/08/13 00:32:45;;;;;;;;;4.75;3.50;;;;;23.06;49.33;101350.44;5027325;28;45520;-71
2023/08/13 00:35:10;;;;;;;;;5.25;4.00;;;;;23.05;49.75;101352.25;5035814;28;46897;-72
2023/08/13 00:37:36;;;;;;;;;6.00;3.75;;;;;23.03;50.03;101347.91;5053876;28;45535;-73
2023/08/13 00:40:04;;;;;;;;;4.33;3.00;;;;;22.95;50.08;101350.00;5039159;28;45386;-72
2023/08/13 00:42:29;;;;;;;;;3.00;3.00;;;;;22.82;49.90;101328.22;5039475;28;45375;-71
2023/08/13 00:44:55;;;;;;;;;3.50;3.50;;;;;22.94;50.13;101349.09;5039041;28;45374;-72
2023/08/13 00:47:21;;;;;;;;;2.25;1.75;;;;;22.95;50.02;101350.84;5053914;28;45602;-73
2023/08/13 00:49:49;;;;;;;;;3.00;3.00;;;;;22.88;50.24;101343.16;5038333;28;45366;-72
2023/08/13 00:52:15;;;;;;;;;1.25;1.25;;;;;22.85;50.57;101347.69;5039810;28;45381;-72
2023/08/13 00:54:42;;;;;;;;;4.00;2.67;;;;;22.78;50.72;101335.50;5035786;28;46580;-72
2023/08/13 00:57:12;;;;;;;;;4.00;1.50;;;;;22.68;50.85;101327.91;5038361;28;45706;-70
2023/08/13 00:59:45;;;;;;;;;4.75;2.75;;;;;22.80;50.34;101344.31;5038664;28;45406;-71
2023/08/13 01:02:10;;;;;;;;;4.00;2.67;;;;;22.67;50.27;101316.34;5039415;28;45465;-72
2023/08/13 01:04:36;;;;;;;;;3.75;2.25;;;;;22.82;50.15;101339.75;5039461;28;46186;-72
2023/08/13 01:07:22;;;;;;;;;1.00;0.00;;;;;22.78;50.40;101331.94;5038770;28;45361;-72
2023/08/13 01:09:56;;;;;;;;;4.75;3.00;;;;;22.85;50.39;101334.31;5039815;28;45524;-73
2023/08/13 01:12:37;;;;;;;;;2.25;1.50;;;;;22.81;50.29;101332.69;5037584;28;45584;-72
2023/08/13 01:15:26;;;;;;;;;3.50;2.00;;;;;22.78;50.40;101322.16;5036748;28;47102;-72
2023/08/13 01:17:53;;;;;;;;;2.00;2.00;;;;;22.89;50.51;101337.72;5038371;28;45303;-73
2023/08/13 01:20:28;;;;;;;;;3.75;2.00;;;;;22.84;50.52;101335.22;5037184;28;45780;-72
2023/08/13 01:22:54;;;;;;;;;2.00;2.00;;;;;22.82;50.80;101328.22;5040191;28;45429;-72
2023/08/13 01:25:23;;;;;;;;;3.00;3.00;;;;;22.84;50.83;101345.91;5038051;28;45515;-72
2023/08/13 01:28:03;;;;;;;;;5.50;2.75;;;;;22.78;51.24;101348.84;5038946;28;45503;-73
2023/08/13 01:30:55;;;;;;;;;3.25;2.00;;;;;22.75;50.75;101340.06;5038545;28;45263;-71
2023/08/13 01:33:41;;;;;;;;;5.33;3.00;;;;;22.77;50.78;101341.75;5037537;28;45593;-72
2023/08/13 01:36:07;;;;;;;;;3.00;3.00;;;;;22.58;51.10;101311.38;5037747;28;46268;-72
2023/08/13 01:38:34;;;;;;;;;2.33;2.00;;;;;22.73;50.83;101334.81;5038422;28;45487;-72
2023/08/13 01:41:03;;;;;;;;;2.67;2.67;;;;;22.67;51.17;101331.50;5037545;28;45354;-71
2023/08/13 01:43:29;;;;;;;;;3.25;1.75;;;;;22.72;51.07;101341.06;5038015;28;45413;-71
2023/08/13 01:45:55;;;;;;;;;4.50;3.00;;;;;22.67;51.15;101326.16;5037601;28;46083;-73
2023/08/13 01:48:21;;;;;;;;;4.33;3.00;;;;;22.61;50.94;101335.25;5053239;28;45298;-73
2023/08/13 01:50:50;;;;;;;;;3.75;3.25;;;;;22.32;51.49;101278.53;5037785;28;45349;-73
2023/08/13 01:53:15;;;;;;;;;2.00;2.00;;;;;22.60;51.45;101323.72;5038372;28;45461;-73
2023/08/13 01:55:42;;;;;;;;;7.33;4.67;;;;;22.65;51.40;101324.41;5037638;28;46131;-73
2023/08/13 01:58:09;;;;;;;;;4.00;4.00;;;;;22.51;51.21;101302.72;5038931;28;45403;-72
2023/08/13 02:00:34;;;;;;;;;3.33;3.00;;;;;22.51;51.12;101296.53;5037953;28;45780;-72
2023/08/13 02:03:00;;;;;;;;;5.00;2.00;;;;;22.62;51.57;101327.22;5053976;28;45532;-72
2023/08/13 02:05:25;;;;;;;;;2.00;2.00;;;;;22.62;51.73;101327.22;5039199;28;45538;-71
2023/08/13 02:07:51;;;;;;;;;4.67;2.67;;;;;22.49;52.09;101323.25;5039239;28;45339;-72
2023/08/13 02:10:17;;;;;;;;;2.50;2.50;;;;;22.18;52.24;101278.16;5036949;28;45419;-71
2023/08/13 02:12:43;;;;;;;;;3.00;2.33;;;;;22.40;52.53;101315.59;5029620;28;45521;-71
2023/08/13 02:15:08;;;;;;;;;3.00;2.67;;;;;22.09;52.99;101273.16;5038544;28;45467;-72
2023/08/13 02:17:34;;;;;;;;;4.00;3.00;;;;;22.38;52.50;101333.50;5038669;28;45409;-72
2023/08/13 02:19:59;;;;;;;;;3.33;3.33;;;;;22.23;52.45;101308.22;5039090;28;45428;-71
2023/08/13 02:22:25;;;;;;;;;1.00;1.00;;;;;22.38;52.16;101337.03;5040687;28;45361;-71
2023/08/13 02:24:51;;;;;;;;;4.67;3.00;;;;;22.34;52.60;101339.88;5039505;28;45514;-71
2023/08/13 02:27:16;;;;;;;;;2.33;2.33;;;;;22.41;52.41;101350.25;5036722;28;45330;-70
2023/08/13 02:29:45;;;;;;;;;5.33;3.00;;;;;22.28;52.13;101314.31;5037985;28;45314;-72
2023/08/13 02:32:10;;;;;;;;;4.00;2.00;;;;;22.44;52.18;101338.59;5036948;28;45850;-71
2023/08/13 02:34:44;;;;;;;;;2.00;2.00;;;;;22.29;52.37;101307.16;5037033;28;46006;-70
2023/08/13 02:37:09;;;;;;;;;3.00;3.00;;;;;22.43;52.51;101332.38;5036785;28;45480;-71
2023/08/13 02:39:38;;;;;;;;;6.00;2.00;;;;;22.43;52.44;101320.84;5036809;28;45485;-72
2023/08/13 02:42:04;;;;;;;;;3.50;3.00;;;;;22.45;52.37;101321.66;5035945;28;45453;-71
2023/08/13 02:44:29;;;;;;;;;3.25;2.25;;;;;22.44;52.54;101320.75;5037135;28;46367;-70
2023/08/13 02:46:55;;;;;;;;;7.00;2.33;;;;;22.46;52.31;101326.06;5032008;28;45376;-71
2023/08/13 02:49:21;;;;;;;;;3.00;3.00;;;;;22.30;52.48;101303.53;5036473;28;45417;-71
2023/08/13 02:51:46;;;;;;;;;2.75;2.25;;;;;22.40;53.09;101319.16;5037307;28;45894;-71
2023/08/13 02:54:12;;;;;;;;;3.00;3.00;;;;;22.41;52.79;101312.03;5036523;28;45937;-71
2023/08/13 02:56:38;;;;;;;;;3.00;3.00;;;;;22.39;52.80;101316.53;5036771;28;45481;-71
2023/08/13 02:59:03;;;;;;;;;3.67;2.00;;;;;22.30;53.09;101303.53;5037178;28;45409;-72
2023/08/13 03:01:29;;;;;;;;;3.33;1.67;;;;;22.31;52.98;101294.63;5037293;28;45417;-71
2023/08/13 03:03:58;;;;;;;;;4.67;2.00;;;;;22.09;53.04;101265.16;5036273;28;45454;-72
2023/08/13 03:06:25;;;;;;;;;5.33;2.00;;;;;22.35;52.98;101310.47;5051803;28;45401;-71
2023/08/13 03:08:50;;;;;;;;;3.67;2.67;;;;;22.28;53.34;101311.63;5036568;28;45454;-72
2023/08/13 03:11:17;;;;;;;;;2.33;2.00;;;;;22.14;53.60;101292.53;5036267;28;45575;-72
2023/08/13 03:13:44;;;;;;;;;3.00;3.00;;;;;22.25;53.78;101302.84;5037312;28;45536;-72
2023/08/13 03:16:10;;;;;;;;;3.33;2.00;;;;;22.10;53.57;101283.78;5036474;28;45377;-70
2023/08/13 03:18:35;;;;;;;;;4.67;3.00;;;;;22.18;53.94;101294.16;5036298;28;45468;-71
2023/08/13 03:21:07;;;;;;;;;3.00;2.67;;;;;21.84;53.57;101247.41;5038099;28;45635;-72
2023/08/13 03:23:33;;;;;;;;;2.00;2.00;;;;;21.97;53.81;101264.72;5036431;28;45606;-72
2023/08/13 03:26:00;;;;;;;;;2.00;2.00;;;;;22.15;53.89;101302.28;5036205;28;45759;-73
2023/08/13 03:28:25;;;;;;;;;4.00;2.67;;;;;22.14;53.85;101306.78;5036339;28;45463;-72
2023/08/13 03:30:57;;;;;;;;;2.67;2.00;;;;;22.15;53.94;101303.16;5036598;28;45365;-71
2023/08/13 03:33:23;;;;;;;;;4.33;3.00;;;;;22.13;54.44;101302.34;5051495;28;45482;-74
2023/08/13 03:35:48;;;;;;;;;3.33;3.00;;;;;21.94;54.45;101279.94;5036473;28;45472;-71
2023/08/13 03:38:14;;;;;;;;;2.33;2.33;;;;;22.14;54.17;101311.22;5036288;28;45368;-72
2023/08/13 03:40:40;;;;;;;;;3.00;3.00;;;;;22.01;54.69;101290.34;5018143;28;45603;-72
2023/08/13 03:43:05;;;;;;;;;4.33;2.00;;;;;21.88;54.31;101280.16;5051932;28;45280;-71
2023/08/13 03:45:31;;;;;;;;;3.00;2.67;;;;;22.05;54.52;101309.78;5036398;28;45733;-71
2023/08/13 03:47:57;;;;;;;;;2.33;2.00;;;;;21.80;54.85;101273.31;5036256;28;45652;-73
2023/08/13 03:50:23;;;;;;;;;2.00;2.00;;;;;22.00;55.04;101311.75;5036200;28;45590;-73
2023/08/13 03:52:52;;;;;;;;;2.33;2.33;;;;;21.73;55.18;101269.13;5039284;28;46169;-71
2023/08/13 03:55:18;;;;;;;;;3.00;2.67;;;;;21.99;54.90;101302.84;5039691;28;45564;-72
2023/08/13 03:57:43;;;;;;;;;3.33;3.33;;;;;22.01;54.83;101306.34;5040115;28;45584;-71
2023/08/13 04:00:09;;;;;;;;;4.00;2.00;;;;;21.87;54.90;101283.78;5039950;28;45353;-72
2023/08/13 04:02:37;;;;;;;;;5.33;2.00;;;;;21.83;54.83;101271.47;5039516;28;46193;-71
2023/08/13 04:05:07;;;;;;;;;4.67;3.00;;;;;22.01;54.70;101306.34;5039592;28;45416;-72
2023/08/13 04:07:33;;;;;;;;;2.33;2.33;;;;;21.85;54.66;101277.63;5040861;28;45452;-72
2023/08/13 04:09:58;;;;;;;;;4.33;1.67;;;;;21.97;55.06;101306.50;5040582;28;45497;-72
2023/08/13 04:12:24;;;;;;;;;6.00;4.00;;;;;21.87;55.14;101313.97;5039324;28;46078;-72
2023/08/13 04:14:49;;;;;;;;;3.33;3.00;;;;;21.59;55.35;101274.09;5038831;28;45484;-73
2023/08/13 04:17:15;;;;;;;;;3.00;2.00;;;;;21.85;55.38;101313.16;5039252;28;45408;-72
2023/08/13 04:19:40;;;;;;;;;6.00;2.00;;;;;21.51;55.31;101253.03;5039742;28;45432;-72
2023/08/13 04:22:06;;;;;;;;;3.00;3.00;;;;;21.86;55.27;101316.72;5039364;28;46169;-74
2023/08/13 04:24:37;;;;;;;;;2.67;2.33;;;;;21.78;55.46;101301.84;5039340;28;45359;-72
2023/08/13 04:27:04;;;;;;;;;2.67;2.00;;;;;21.84;55.57;101315.88;5040098;28;45405;-73
2023/08/13 04:29:31;;;;;;;;;3.00;2.00;;;;;21.73;55.62;101302.91;5038648;28;45505;-72
2023/08/13 04:31:57;;;;;;;;;2.33;2.33;;;;;21.65;55.55;101297.00;5038775;28;46069;-74
2023/08/13 04:34:22;;;;;;;;;3.67;3.67;;;;;21.65;55.83;101299.66;5039491;28;45473;-72
2023/08/13 04:36:48;;;;;;;;;2.33;2.33;;;;;21.78;55.76;101307.19;5038306;28;45367;-73
2023/08/13 04:39:13;;;;;;;;;5.00;2.00;;;;;21.61;55.84;101296.22;5040044;28;45451;-73
2023/08/13 04:41:40;;;;;;;;;2.67;2.67;;;;;21.62;55.75;101303.31;5038908;28;45977;-71
2023/08/13 04:44:06;;;;;;;;;3.00;3.00;;;;;21.53;55.70;101284.97;5039175;28;45548;-73
2023/08/13 04:46:32;;;;;;;;;3.33;2.33;;;;;21.66;55.83;101312.94;5038807;28;45450;-70
2023/08/13 04:48:58;;;;;;;;;4.00;2.67;;;;;21.61;56.59;101304.22;5039048;28;45500;-71
2023/08/13 04:51:24;;;;;;;;;59.00;45.00;;;;;21.74;56.31;101318.88;5038937;28;46134;-70
2023/08/13 04:53:49;;;;;;;;;107.75;89.25;;;;;21.62;56.93;101294.44;5038376;28;45678;-68
2023/08/13 04:56:15;;;;;;;;;54.75;43.50;;;;;21.72;56.41;101303.88;5039128;28;45440;-70
2023/08/13 04:58:42;;;;;;;;;27.67;23.00;;;;;21.72;56.92;101312.72;5040238;28;45553;-69
2023/08/13 05:01:07;;;;;;;;;13.00;10.67;;;;;21.66;56.83;101307.59;5037430;28;45690;-71
2023/08/13 05:03:33;;;;;;;;;9.67;7.00;;;;;21.74;56.55;101321.53;5037112;28;45397;-70
2023/08/13 05:05:58;;;;;;;;;5.33;4.33;;;;;21.57;56.66;101282.16;5040039;28;45465;-72
2023/08/13 05:08:24;;;;;;;;;4.00;4.00;;;;;21.49;56.41;101270.88;5039546;28;45500;-72
2023/08/13 05:10:50;;;;;;;;;5.00;3.00;;;;;21.81;56.19;101311.53;5039717;28;45567;-73
2023/08/13 05:13:16;;;;;;;;;4.33;4.00;;;;;21.84;56.64;101319.41;5039556;28;45500;-70
2023/08/13 05:15:41;;;;;;;;;8.67;4.00;;;;;21.78;56.28;101308.97;5038749;28;45411;-72
2023/08/13 05:18:07;;;;;;;;;7.00;3.00;;;;;21.71;56.69;101313.66;5054046;28;45382;-70
2023/08/13 05:20:36;;;;;;;;;2.67;2.67;;;;;21.62;56.94;101308.66;5038029;28;46068;-73
2023/08/13 05:23:02;;;;;;;;;2.00;2.00;;;;;21.72;56.69;101314.53;5038252;28;45429;-71
2023/08/13 05:25:29;;;;;;;;;4.00;3.00;;;;;21.80;56.69;101320.44;5038051;28;45544;-72
2023/08/13 05:27:54;;;;;;;;;5.00;3.00;;;;;21.76;57.00;101319.69;5038590;28;45483;-71
2023/08/13 05:30:20;;;;;;;;;6.33;3.33;;;;;21.59;56.84;101290.97;5037384;28;46167;-71
2023/08/13 05:32:46;;;;;;;;;3.00;2.33;;;;;21.47;56.61;101279.84;5036328;28;45532;-71
2023/08/13 05:35:13;;;;;;;;;2.00;2.00;;;;;21.44;56.75;101280.81;5039408;28;45673;-70
2023/08/13 05:37:39;;;;;;;;;4.67;3.00;;;;;21.56;57.09;101317.72;5039332;28;45338;-69
2023/08/13 05:40:06;;;;;;;;;3.67;2.00;;;;;21.54;57.21;101298.22;5038451;28;45319;-70
2023/08/13 05:42:32;;;;;;;;;1.25;1.25;;;;;21.72;57.01;101317.19;5039201;28;45561;-71
2023/08/13 05:44:58;;;;;;;;;6.00;2.00;;;;;21.79;56.81;101324.03;5038999;28;45348;-71
2023/08/13 05:47:24;;;;;;;;;6.00;2.33;;;;;21.77;56.60;101321.44;5036384;28;45397;-72
2023/08/13 05:49:49;;;;;;;;;4.00;2.33;;;;;21.92;56.20;101328.00;5038412;28;45402;-71
2023/08/13 05:52:15;;;;;;;;;5.00;2.33;;;;;21.71;56.49;101303.00;5037385;28;45529;-71
2023/08/13 05:54:44;;;;;;;;;3.00;2.33;;;;;21.78;56.75;101331.19;5035686;28;45623;-71
2023/08/13 05:57:09;;;;;;;;;2.67;2.33;;;;;21.68;56.89;101315.56;5035829;28;45342;-70
2023/08/13 05:59:38;;;;;;;;;3.33;3.33;;;;;21.18;57.31;101239.94;5036540;28;45592;-69
2023/08/13 06:02:04;;;;;;;;;3.67;3.67;;;;;21.58;57.06;101310.53;5036666;28;45558;-71
2023/08/13 06:04:34;;;;;;;;;4.33;2.00;;;;;21.67;57.43;101324.50;5036092;28;45503;-70
2023/08/13 06:07:01;;;;;;;;;4.67;3.33;;;;;21.46;57.58;101312.75;5035715;28;45605;-70
2023/08/13 06:09:27;;;;;;;;;4.00;4.00;;;;;21.40;57.86;101305.81;5034518;28;46622;-70
2023/08/13 06:11:53;;;;;;;;;3.33;2.00;;;;;21.27;56.99;101268.06;5036146;28;45584;-71
2023/08/13 06:14:19;;;;;;;;;1.67;1.67;;;;;21.40;56.85;101271.19;5035900;28;45707;-70
2023/08/13 06:16:44;;;;;;;;;5.67;2.00;;;;;21.60;56.86;101295.38;5037466;28;45538;-69
2023/08/13 06:19:10;;;;;;;;;5.00;3.00;;;;;21.72;56.98;101325.19;5034803;28;45586;-69
2023/08/13 06:21:35;;;;;;;;;6.00;3.00;;;;;21.77;57.20;101334.75;5035581;28;45571;-69
2023/08/13 06:24:01;;;;;;;;;4.00;1.67;;;;;21.88;57.13;101339.72;5036220;28;45516;-69
2023/08/13 06:26:27;;;;;;;;;4.67;3.00;;;;;21.88;56.92;101318.38;5036085;28;45413;-71
2023/08/13 06:28:52;;;;;;;;;3.67;3.00;;;;;22.07;56.72;101341.72;5035838;28;46023;-70
2023/08/13 06:31:18;;;;;;;;;5.00;3.00;;;;;22.13;56.51;101331.69;5036107;28;45381;-69
2023/08/13 06:33:43;;;;;;;;;2.00;2.00;;;;;22.28;56.33;101324.97;5036359;28;45371;-70
2023/08/13 06:36:09;;;;;;;;;3.00;2.33;;;;;22.41;55.95;101334.22;5035040;28;45397;-70
2023/08/13 06:38:37;;;;;;;;;5.67;2.67;;;;;22.36;55.47;101314.88;5034195;28;47871;-72
2023/08/13 06:41:05;;;;;;;;;2.33;2.33;;;;;22.44;55.48;101336.78;5034222;28;45941;-71
2023/08/13 06:43:32;;;;;;;;;2.00;2.00;;;;;22.51;55.21;101340.09;5036000;28;45579;-71
2023/08/13 06:45:59;;;;;;;;;6.67;2.00;;;;;22.39;55.17;101320.06;5035825;28;45572;-72
2023/08/13 06:48:26;;;;;;;;;4.00;2.67;;;;;22.50;54.95;101338.38;5035372;28;45510;-72
2023/08/13 06:50:55;;;;;;;;;4.75;1.75;;;;;22.02;55.06;101252.09;5035027;28;45567;-72
2023/08/13 06:53:21;;;;;;;;;3.25;1.00;;;;;22.44;54.89;101318.09;5030924;28;45525;-72
2023/08/13 06:55:47;;;;;;;;;2.00;2.00;;;;;22.60;54.61;101337.06;5047585;28;45496;-71
2023/08/13 06:58:12;;;;;;;;;3.00;1.75;;;;;22.33;54.65;101282.06;5036444;28;46428;-71
2023/08/13 07:00:40;;;;;;;;;2.75;1.50;;;;;22.14;54.50;101256.09;5034289;28;45501;-71
2023/08/13 07:03:10;;;;;;;;;3.00;3.00;;;;;22.70;54.30;101337.59;5036388;28;45503;-72
2023/08/13 07:05:36;;;;;;;;;2.67;2.67;;;;;22.71;54.24;101339.34;5036506;28;45543;-72
2023/08/13 07:08:04;;;;;;;;;3.75;2.50;;;;;22.73;54.03;101348.16;5035967;28;46276;-70
2023/08/13 07:10:29;;;;;;;;;2.00;2.00;;;;;22.28;54.16;101274.28;5034763;28;45506;-71
2023/08/13 07:12:55;;;;;;;;;1.00;1.00;;;;;22.68;53.70;101333.22;5036380;28;45506;-71
2023/08/13 07:15:20;;;;;;;;;1.75;1.75;;;;;22.75;53.62;101346.28;5036023;28;45461;-72
2023/08/13 07:17:46;;;;;;;;;3.25;2.00;;;;;22.75;53.42;101342.75;5036099;28;45658;-70
2023/08/13 07:20:14;;;;;;;;;1.00;1.00;;;;;22.47;53.50;101294.88;5036967;28;45510;-71
2023/08/13 07:22:42;;;;;;;;;1.00;1.00;;;;;22.80;52.95;101347.00;5037567;28;45519;-70
2023/08/13 07:25:08;;;;;;;;;2.00;2.00;;;;;22.78;52.81;101324.81;5037557;28;45283;-71
2023/08/13 07:27:34;;;;;;;;;2.00;1.50;;;;;22.90;52.89;101317.22;5035586;28;45627;-71
2023/08/13 07:30:00;;;;;;;;;4.75;2.00;;;;;22.88;52.59;101297.75;5036062;28;45246;-70
2023/08/13 07:32:27;;;;;;;;;3.00;1.00;;;;;23.17;52.11;101344.66;5036090;28;45357;-71
2023/08/13 07:34:53;;;;;;;;;2.50;1.00;;;;;23.19;52.23;101337.47;5035743;28;45630;-71
2023/08/13 07:37:18;;;;;;;;;2.00;2.00;;;;;23.18;52.12;101325.91;5036434;28;45476;-69
2023/08/13 07:39:44;;;;;;;;;4.00;2.75;;;;;23.37;51.68;101344.72;5037129;28;45425;-70
2023/08/13 07:42:10;;;;;;;;;1.50;1.50;;;;;23.47;51.84;101346.06;5037151;28;45825;-71
2023/08/13 07:44:38;;;;;;;;;2.50;1.75;;;;;23.43;51.22;101315.03;5037774;28;45489;-71
2023/08/13 07:47:04;;;;;;;;;0.75;0.75;;;;;23.52;51.66;101337.00;5034751;28;46809;-71
2023/08/13 07:49:29;;;;;;;;;2.00;2.00;;;;;23.63;51.11;101332.94;5051057;28;45776;-70
2023/08/13 07:51:55;;;;;;;;;3.00;2.00;;;;;23.76;51.31;101335.09;5035901;28;45446;-69
2023/08/13 07:54:22;;;;;;;;;2.00;2.00;;;;;23.86;51.25;101337.28;5035357;28;45342;-70
2023/08/13 07:56:48;;;;;;;;;3.50;2.25;;;;;23.89;51.45;101330.94;5035334;28;45477;-70
2023/08/13 07:59:14;;;;;;;;;3.00;2.25;;;;;23.91;50.82;101329.06;5034180;28;45486;-70
2023/08/13 08:01:42;;;;;;;;;3.00;1.25;;;;;23.95;50.16;101328.00;5035103;28;45556;-69
2023/08/13 08:04:08;;;;;;;;;2.00;1.00;;;;;23.91;50.59;101337.94;5035425;28;45551;-69
2023/08/13 08:06:34;;;;;;;;;2.00;2.00;;;;;23.90;50.76;101324.66;5033672;28;46882;-69
2023/08/13 08:08:59;;;;;;;;;1.75;1.75;;;;;24.04;50.72;101332.94;5035175;28;45544;-70
2023/08/13 08:11:25;;;;;;;;;1.00;1.00;;;;;24.02;49.74;101313.41;5035222;28;45449;-70
2023/08/13 08:13:51;;;;;;;;;3.25;1.75;;;;;24.21;51.03;101336.66;5035217;28;45363;-70
2023/08/13 08:16:16;;;;;;;;;2.00;2.00;;;;;24.08;50.63;101321.16;5036305;28;46097;-70
2023/08/13 08:18:42;;;;;;;;;2.00;1.75;;;;;24.13;50.25;101320.94;5036280;28;45470;-69
2023/08/13 08:21:07;;;;;;;;;1.00;1.00;;;;;24.26;49.98;101326.59;5035803;28;45466;-71
2023/08/13 08:23:33;;;;;;;;;1.00;1.00;;;;;24.36;50.37;101338.63;5035397;28;45555;-71
2023/08/13 08:26:00;;;;;;;;;2.00;2.00;;;;;24.28;49.11;101335.44;5035226;28;45630;-71
2023/08/13 08:28:26;;;;;;;;;3.25;1.00;;;;;24.29;49.20;101326.47;5033724;28;45536;-70
2023/08/13 08:30:52;;;;;;;;;1.00;1.00;;;;;24.40;49.84;101328.66;5035921;28;45483;-70
2023/08/13 08:33:22;;;;;;;;;1.75;1.00;;;;;24.52;49.11;101334.31;5037022;28;45447;-70
2023/08/13 08:35:47;;;;;;;;;2.50;1.25;;;;;24.41;49.40;101317.00;5035563;28;46765;-69
2023/08/13 08:38:17;;;;;;;;;1.00;1.00;;;;;24.54;48.14;101329.78;5036179;28;45551;-70
2023/08/13 08:40:45;;;;;;;;;1.75;1.75;;;;;24.48;48.76;101316.66;5038511;28;45593;-71
2023/08/13 08:43:11;;;;;;;;;2.75;1.00;;;;;24.63;48.03;101327.59;5039995;28;45533;-70
2023/08/13 08:45:38;;;;;;;;;1.50;1.00;;;;;24.56;47.67;101324.34;5039200;28;45363;-70
2023/08/13 08:48:07;;;;;;;;;4.00;2.00;;;;;24.46;47.51;101325.66;5039622;28;45422;-70
2023/08/13 08:50:36;;;;;;;;;1.50;1.50;;;;;24.43;47.80;101321.34;5038993;28;45441;-70
2023/08/13 08:53:03;;;;;;;;;7.00;1.50;;;;;24.44;47.18;101315.06;5040481;28;45372;-71
2023/08/13 08:55:29;;;;;;;;;1.00;1.00;;;;;24.46;47.32;101310.50;5037389;28;46404;-69
2023/08/13 08:57:54;;;;;;;;;3.00;1.00;;;;;24.48;48.10;101303.28;5039960;28;45425;-69
2023/08/13 09:00:20;;;;;;;;;1.25;1.00;;;;;24.59;46.91;101317.97;5040723;28;45484;-69
2023/08/13 09:02:46;;;;;;;;;1.00;1.00;;;;;24.49;47.15;101318.41;5040427;28;45528;-69
2023/08/13 09:05:12;;;;;;;;;3.00;1.00;;;;;24.44;46.86;101324.88;5038217;28;46215;-72
2023/08/13 09:07:42;;;;;;;;;2.00;0.50;;;;;24.42;47.19;101319.59;5038500;28;45461;-71
2023/08/13 09:10:09;;;;;;;;;1.00;1.00;;;;;24.24;47.27;101307.94;5039497;28;45677;-71
2023/08/13 09:12:40;;;;;;;;;0.25;0.00;;;;;24.22;46.69;101311.63;5037438;28;45647;-71
2023/08/13 09:15:08;;;;;;;;;1.00;1.00;;;;;24.12;47.28;101325.41;5037593;28;46143;-71
2023/08/13 09:17:33;;;;;;;;;2.00;0.75;;;;;24.14;46.37;101325.38;5037402;28;45375;-72
2023/08/13 09:20:07;;;;;;;;;0.75;0.00;;;;;24.20;46.32;101326.88;5037825;28;45429;-71
2023/08/13 09:22:43;;;;;;;;;0.25;0.25;;;;;24.19;45.93;101325.16;5038187;28;45548;-71
2023/08/13 09:25:08;;;;;;;;;0.75;0.75;;;;;24.29;46.34;101331.81;5036714;28;47632;-71
2023/08/13 09:27:38;;;;;;;;;2.75;1.50;;;;;24.26;47.30;101322.13;5037647;28;45591;-70
2023/08/13 09:30:04;;;;;;;;;3.00;1.00;;;;;24.17;46.64;101325.22;5036287;28;45479;-70
2023/08/13 09:32:30;;;;;;;;;1.00;1.00;;;;;24.25;46.89;101314.16;5037834;28;45600;-71
2023/08/13 09:34:56;;;;;;;;;1.00;1.00;;;;;24.43;46.16;101323.16;5037385;28;45963;-73
2023/08/13 09:37:25;;;;;;;;;2.75;1.25;;;;;24.62;47.09;101326.72;5035885;28;45596;-69
2023/08/13 09:39:51;;;;;;;;;1.50;1.00;;;;;24.63;47.34;101299.03;5037581;28;45708;-70
2023/08/13 09:42:23;;;;;;;;;4.25;1.00;;;;;24.80;46.52;101316.09;5034539;28;45284;-71
2023/08/13 09:44:51;;;;;;;;;0.00;0.00;;;;;24.12;45.61;101169.34;5038461;28;45608;-72
2023/08/13 09:47:23;;;;;;;;;2.75;1.00;;;;;24.96;45.73;101309.91;5036024;28;45610;-70
2023/08/13 09:49:56;;;;;;;;;0.50;0.00;;;;;24.84;45.39;101264.94;5036975;28;45465;-73
2023/08/13 09:52:26;;;;;;;;;1.00;1.00;;;;;24.93;44.69;101298.47;5032583;28;45669;-71
2023/08/13 09:55:11;;;;;;;;;1.00;0.75;;;;;24.96;44.91;101304.56;5037280;28;45593;-70
2023/08/13 09:57:38;;;;;;;;;2.75;1.00;;;;;24.96;44.46;101288.47;5036007;28;45414;-75
2023/08/13 10:00:09;;;;;;;;;1.00;1.00;;;;;24.95;43.75;101300.13;5034826;28;45557;-74
2023/08/13 10:02:40;;;;;;;;;2.00;0.25;;;;;24.91;43.86;101286.94;5038569;28;45648;-73
2023/08/13 10:05:06;;;;;;;;;1.00;1.00;;;;;24.83;44.14;101260.53;5037463;28;45575;-71
2023/08/13 10:07:32;;;;;;;;;2.00;0.20;;;;;25.09;43.66;101283.34;5037312;28;45280;-70
2023/08/13 10:10:02;;;;;;;;;1.00;1.00;;;;;25.02;43.65;101263.16;5038551;28;45444;-73
2023/08/13 10:12:29;;;;;;;;;2.00;0.00;;;;;25.03;43.41;101247.94;5034157;28;46826;-74
2023/08/13 10:14:54;;;;;;;;;1.25;0.00;;;;;25.37;43.65;101306.13;5034950;28;46129;-72
2023/08/13 10:17:26;;;;;;;;;1.25;1.00;;;;;25.30;42.98;101259.13;5035275;28;45536;-71
2023/08/13 10:19:55;;;;;;;;;1.75;1.50;;;;;25.31;42.54;101250.13;5037879;28;45346;-74
2023/08/13 10:22:40;;;;;;;;;1.50;1.50;;;;;25.43;42.93;101268.25;5037441;28;45367;-74
2023/08/13 10:25:07;;;;;;;;;0.75;0.75;;;;;25.39;42.69;101250.63;5034485;28;46540;-72
2023/08/13 10:27:42;;;;;;;;;1.25;1.00;;;;;25.67;42.52;101267.94;5036780;28;45283;-72
2023/08/13 10:30:13;;;;;;;;;1.50;1.25;;;;;25.67;42.91;101284.03;5035892;28;45360;-75
2023/08/13 10:32:49;;;;;;;;;1.00;1.00;;;;;25.56;42.01;101281.91;5037355;28;45513;-75
2023/08/13 10:35:34;;;;;;;;;2.00;1.50;;;;;25.58;42.22;101278.19;5037396;28;46310;-74
2023/08/13 10:38:02;;;;;;;;;2.50;1.00;;;;;25.90;42.77;101286.38;5029514;28;45547;-72
2023/08/13 10:40:28;;;;;;;;;3.50;2.50;;;;;25.99;42.51;101288.56;5036398;28;45475;-72
2023/08/13 10:42:56;;;;;;;;;2.50;2.25;;;;;26.13;42.48;101293.22;5027062;28;45466;-72
2023/08/13 10:45:26;;;;;;;;;3.00;1.00;;;;;26.27;41.94;101289.78;5036998;28;45660;-72
2023/08/13 10:47:57;;;;;;;;;3.00;2.00;;;;;26.36;42.39;101277.63;5037343;28;45242;-72
2023/08/13 10:50:30;;;;;;;;;3.75;2.00;;;;;26.49;41.46;101286.75;5037900;28;45472;-72
2023/08/13 10:53:12;;;;;;;;;4.25;2.00;;;;;26.42;42.27;101283.53;5037167;28;45793;-72
2023/08/13 10:55:39;;;;;;;;;3.25;2.00;;;;;26.47;42.01;101271.69;5034298;28;46178;-72
2023/08/13 10:58:21;;;;;;;;;1.00;1.00;;;;;26.64;41.83;101275.16;5036360;28;45336;-72
2023/08/13 11:00:47;;;;;;;;;1.50;1.50;;;;;26.69;41.51;101282.09;5034843;28;45457;-72
2023/08/13 11:03:22;;;;;;;;;2.25;2.00;;;;;26.64;41.06;101248.28;5035765;28;45461;-72
2023/08/13 11:05:49;;;;;;;;;1.00;1.00;;;;;26.35;41.34;101185.47;5036146;28;45505;-73
2023/08/13 11:08:26;;;;;;;;;2.00;1.60;;;;;26.70;41.67;101273.97;5052114;28;45356;-72
2023/08/13 11:10:53;;;;;;;;;2.00;2.00;;;;;26.34;42.24;101250.88;5036653;28;45459;-71
2023/08/13 11:13:19;;;;;;;;;3.00;2.50;;;;;26.29;42.20;101266.38;5036659;28;45329;-71
2023/08/13 11:15:54;;;;;;;;;3.50;1.75;;;;;26.35;42.23;101267.84;5029114;28;46220;-71
2023/08/13 11:18:20;;;;;;;;;2.40;2.40;;;;;26.22;42.63;101249.75;5032483;28;45551;-72
2023/08/13 11:20:47;;;;;;;;;1.00;1.00;;;;;26.29;42.07;101250.28;5033328;28;45483;-71
2023/08/13 11:23:14;;;;;;;;;1.25;1.00;;;;;26.45;41.15;101251.13;5032887;28;45573;-70
2023/08/13 11:25:40;;;;;;;;;2.00;1.00;;;;;26.41;40.86;101257.66;5032518;28;46056;-72